Cedar Glen, California
Current Conditions -  °F | °C
As of 8:50 PM on Sunday 19 Oct 2014 (Local Time) from KSBD Reporting Station
Clear Clear  
Wind Chill: 66°   Ceiling: Unl
Heat Index: 66°   Visibility: 7mi
Dew Point: 55°   Wind: 6mph
Humidity: 68%   Direction: 250°WSW
Pressure: 29.89"   Gusts: NA
Location:  34.25°N, 117.17°W
Report Text: KSBD 200350Z 25005KT 7SM SKC 19/13 A2989 RMK LAST
Loading
Personal Weather Stations






























Interactive Weather Map
Tropical Storm Tracking
New forecast layout! Learn more

10-Day Weather Forecast

Advertisements
Track Severe Weather on mobile